Shin Mei Maru — JG5617 — position and weather

sailwx.info

Track history (hours):
 
Tides and Currents Weather Stations Pressure Air Temp Water Temp Dewpoint Dewpoint Depression Visibility Wind Speed Wind Dir Waves Ship Positions

Shin Mei Maru

Last reported at 2016-Aug-24 13:29 UTC. Time now 2016-Aug-25 14:58 UTC.
Position N 34°56' E 139°25'.

Length 160 m; draft 7 m.

Type: Cargo ship. MMSI: 431100922.

Date/timePositionNaut miles runAvg speedWind from/ knotsBaromVisibWave heightAir tempDewpointWater temp
2016-Aug-24 13:29N 34°56' E 139°25'1516.7
2016-Aug-24 12:33N 35°05' E 139°40'1413.8
2016-Aug-24 11:33N 35°18' E 139°44'1414.3
2016-Aug-24 10:33N 35°31' E 139°51'3 2.5
2016-Aug-24 09:32N 35°34' E 139°52'0 0.0
2016-Aug-24 08:32N 35°34' E 139°52'2 1.7
2016-Aug-24 07:33N 35°34' E 139°50'5 5.4
2016-Aug-24 06:33N 35°38' E 139°46'0 0.0
2016-Aug-24 04:32N 35°38' E 139°46'0 0.0
2016-Aug-24 03:32N 35°38' E 139°46'0 0.0
2016-Aug-24 02:32N 35°38' E 139°46'0 0.0
2016-Aug-24 01:32N 35°38' E 139°46'0 0.0
2016-Aug-24 00:32N 35°38' E 139°46'1 1.0
2016-Aug-23 23:33N 35°37' E 139°46'1212.2
2016-Aug-23 22:33N 35°25' E 139°47'1111.2
2016-Aug-23 21:33N 35°14' E 139°47'1717.0
2016-Aug-23 20:33N 34°57' E 139°43'1414.4
2016-Aug-23 19:33N 34°53' E 139°60'1716.9
2016-Aug-23 18:33N 35°00' E 140°18'1616.4
2016-Aug-23 17:33N 35°11' E 140°33'1817.6
2016-Aug-23 16:33N 35°25' E 140°45'1717.3
2016-Aug-23 15:33N 35°39' E 140°58'1716.7
2016-Aug-23 14:33N 35°56' E 141°02'1717.3
2016-Aug-23 13:33N 36°13' E 141°05'  
2016-Aug-17 19:17N 36°16' E 141°05'2019.0
2016-Aug-17 18:14N 35°56' E 141°02'1820.0
2016-Aug-17 17:21N 35°39' E 141°00'1821.7
2016-Aug-17 16:33N 35°25' E 140°47'2221.4
2016-Aug-17 15:31N 35°08' E 140°30'1919.8
2016-Aug-17 14:33N 34°57' E 140°11'1919.4
2016-Aug-17 13:33N 34°48' E 139°50'1717.4
2016-Aug-17 12:33N 35°05' E 139°43'1414.4
2016-Aug-17 11:33N 35°19' E 139°43'1313.0
2016-Aug-17 10:33N 35°30' E 139°52'2 2.2
2016-Aug-17 09:32N 35°31' E 139°54'0 0.0
2016-Aug-17 08:30N 35°31' E 139°54'0 0.1
2016-Aug-17 07:33N 35°31' E 139°54'0 0.0
2016-Aug-17 06:32N 35°31' E 139°54'0 0.0
2016-Aug-17 05:34N 35°31' E 139°54'0 0.0
2016-Aug-17 04:29N 35°31' E 139°54'0 0.1
2016-Aug-17 03:32N 35°31' E 139°54'0 0.1
2016-Aug-17 02:33N 35°31' E 139°54'0 0.0
2016-Aug-17 01:33N 35°31' E 139°54'0 0.0
2016-Aug-17 00:33N 35°31' E 139°54'0 0.0
2016-Aug-16 23:33N 35°31' E 139°54'0 0.0
2016-Aug-16 22:33N 35°31' E 139°54'0 0.1
2016-Aug-16 21:32N 35°31' E 139°54'0 0.1
2016-Aug-16 20:33N 35°31' E 139°54'0 0.1
2016-Aug-16 19:33N 35°31' E 139°54'0 0.0
2016-Aug-16 18:33N 35°31' E 139°54'0 0.1
2016-Aug-16 17:33N 35°31' E 139°54'0 0.1
2016-Aug-16 16:33N 35°31' E 139°54'0 0.1
2016-Aug-16 15:32N 35°31' E 139°54'0 0.0
2016-Aug-16 14:33N 35°31' E 139°54'0 0.0
2016-Aug-16 13:30N 35°31' E 139°54'0 0.0
2016-Aug-16 12:33N 35°31' E 139°54'0 0.0
2016-Aug-16 11:32N 35°31' E 139°54'1 1.3
2016-Aug-16 10:34N 35°31' E 139°52'9 8.9
2016-Aug-16 09:31N 35°38' E 139°46'0 0.0
2016-Aug-16 08:25N 35°38' E 139°46'0 0.0
2016-Aug-16 07:31N 35°38' E 139°46'0 0.0
2016-Aug-16 06:28N 35°38' E 139°46'0 0.0
2016-Aug-16 04:31N 35°38' E 139°46'0 0.0
2016-Aug-16 03:31N 35°38' E 139°46'0 0.0
2016-Aug-16 02:31N 35°38' E 139°46'0 0.0
2016-Aug-16 01:31N 35°38' E 139°46'0 0.0
2016-Aug-16 00:28N 35°38' E 139°46'4 4.0
2016-Aug-15 23:33N 35°35' E 139°48'1313.1
2016-Aug-15 22:34N 35°22' E 139°45'1211.7
2016-Aug-15 21:33N 35°10' E 139°47'1818.0
2016-Aug-15 20:33N 34°56' E 139°33'5316.5
2016-Aug-15 17:22N 34°31' E 138°37'52 1.9
2016-Aug-14 13:29N 34°59' E 139°30'  
Track history (hours):
 
Tides and Currents Weather Stations Pressure Air Temp Water Temp Dewpoint Dewpoint Depression Visibility Wind Speed Wind Dir Waves Ship Positions

Shin Mei Maru

Last reported at 2016-Aug-24 13:29 UTC. Time now 2016-Aug-25 14:58 UTC.
Position N 34°56' E 139°25'.

Length 160 m; draft 7 m.

Type: Cargo ship. MMSI: 431100922.

Date/timePositionNaut miles runAvg speedWind from/ knotsBaromVisibWave heightAir tempDewpointWater temp
2016-Aug-24 13:29N 34°56' E 139°25'1516.7
2016-Aug-24 12:33N 35°05' E 139°40'1413.8
2016-Aug-24 11:33N 35°18' E 139°44'1414.3
2016-Aug-24 10:33N 35°31' E 139°51'3 2.5
2016-Aug-24 09:32N 35°34' E 139°52'0 0.0
2016-Aug-24 08:32N 35°34' E 139°52'2 1.7
2016-Aug-24 07:33N 35°34' E 139°50'5 5.4
2016-Aug-24 06:33N 35°38' E 139°46'0 0.0
2016-Aug-24 04:32N 35°38' E 139°46'0 0.0
2016-Aug-24 03:32N 35°38' E 139°46'0 0.0
2016-Aug-24 02:32N 35°38' E 139°46'0 0.0
2016-Aug-24 01:32N 35°38' E 139°46'0 0.0
2016-Aug-24 00:32N 35°38' E 139°46'1 1.0
2016-Aug-23 23:33N 35°37' E 139°46'1212.2
2016-Aug-23 22:33N 35°25' E 139°47'1111.2
2016-Aug-23 21:33N 35°14' E 139°47'1717.0
2016-Aug-23 20:33N 34°57' E 139°43'1414.4
2016-Aug-23 19:33N 34°53' E 139°60'1716.9
2016-Aug-23 18:33N 35°00' E 140°18'1616.4
2016-Aug-23 17:33N 35°11' E 140°33'1817.6
2016-Aug-23 16:33N 35°25' E 140°45'1717.3
2016-Aug-23 15:33N 35°39' E 140°58'1716.7
2016-Aug-23 14:33N 35°56' E 141°02'1717.3
2016-Aug-23 13:33N 36°13' E 141°05'  
2016-Aug-17 19:17N 36°16' E 141°05'2019.0
2016-Aug-17 18:14N 35°56' E 141°02'1820.0
2016-Aug-17 17:21N 35°39' E 141°00'1821.7
2016-Aug-17 16:33N 35°25' E 140°47'2221.4
2016-Aug-17 15:31N 35°08' E 140°30'1919.8
2016-Aug-17 14:33N 34°57' E 140°11'1919.4
2016-Aug-17 13:33N 34°48' E 139°50'1717.4
2016-Aug-17 12:33N 35°05' E 139°43'1414.4
2016-Aug-17 11:33N 35°19' E 139°43'1313.0
2016-Aug-17 10:33N 35°30' E 139°52'2 2.2
2016-Aug-17 09:32N 35°31' E 139°54'0 0.0
2016-Aug-17 08:30N 35°31' E 139°54'0 0.1
2016-Aug-17 07:33N 35°31' E 139°54'0 0.0
2016-Aug-17 06:32N 35°31' E 139°54'0 0.0
2016-Aug-17 05:34N 35°31' E 139°54'0 0.0
2016-Aug-17 04:29N 35°31' E 139°54'0 0.1
2016-Aug-17 03:32N 35°31' E 139°54'0 0.1
2016-Aug-17 02:33N 35°31' E 139°54'0 0.0
2016-Aug-17 01:33N 35°31' E 139°54'0 0.0
2016-Aug-17 00:33N 35°31' E 139°54'0 0.0
2016-Aug-16 23:33N 35°31' E 139°54'0 0.0
2016-Aug-16 22:33N 35°31' E 139°54'0 0.1
2016-Aug-16 21:32N 35°31' E 139°54'0 0.1
2016-Aug-16 20:33N 35°31' E 139°54'0 0.1
2016-Aug-16 19:33N 35°31' E 139°54'0 0.0
2016-Aug-16 18:33N 35°31' E 139°54'0 0.1
2016-Aug-16 17:33N 35°31' E 139°54'0 0.1
2016-Aug-16 16:33N 35°31' E 139°54'0 0.1
2016-Aug-16 15:32N 35°31' E 139°54'0 0.0
2016-Aug-16 14:33N 35°31' E 139°54'0 0.0
2016-Aug-16 13:30N 35°31' E 139°54'0 0.0
2016-Aug-16 12:33N 35°31' E 139°54'0 0.0
2016-Aug-16 11:32N 35°31' E 139°54'1 1.3
2016-Aug-16 10:34N 35°31' E 139°52'9 8.9
2016-Aug-16 09:31N 35°38' E 139°46'0 0.0
2016-Aug-16 08:25N 35°38' E 139°46'0 0.0
2016-Aug-16 07:31N 35°38' E 139°46'0 0.0
2016-Aug-16 06:28N 35°38' E 139°46'0 0.0
2016-Aug-16 04:31N 35°38' E 139°46'0 0.0
2016-Aug-16 03:31N 35°38' E 139°46'0 0.0
2016-Aug-16 02:31N 35°38' E 139°46'0 0.0
2016-Aug-16 01:31N 35°38' E 139°46'0 0.0
2016-Aug-16 00:28N 35°38' E 139°46'4 4.0
2016-Aug-15 23:33N 35°35' E 139°48'1313.1
2016-Aug-15 22:34N 35°22' E 139°45'1211.7
2016-Aug-15 21:33N 35°10' E 139°47'1818.0
2016-Aug-15 20:33N 34°56' E 139°33'5316.5
2016-Aug-15 17:22N 34°31' E 138°37'52 1.9
2016-Aug-14 13:29N 34°59' E 139°30'  

Dump ship's entire track history